Latest Coastal Weather Observations for Larapuna (Eddystone Point)

IDT60701

Issued at 2:52 pm EST Sunday 18 August 2019 (issued every 10 minutes, with the page automatically refreshed every 10 minutes)

About coastal observations | Map of coastal stations | Coastal observations for TAS | Marine services | Other Formats
Station Details ID: 092045 Name: LARAPUNA (EDDYSTONE POINT) Lat: -40.99 Lon: 148.35 Height: 19.7 m
Data from the previous 72 hours. | See also: Recent months at Larapuna (Eddystone Point)
Date/Time
EST
Wind Sea
Height
m
Swell Vis
km
Cloud Weather Temp
°C
Press
hPa
Rain since
9am
mm
Dir  Spd
kts
Gust
kts
Height
m
Period
s
Dir
18/02:30pm N 11 20 - - - - - - - 13.7 1002.2 0.0
18/02:00pm N 15 19 - - - - - - - 13.6 1003.2 0.0
18/01:30pm N 17 21 - - - - - - - 13.9 1003.9 0.0
18/01:00pm NNE 15 17 - - - - - - - 13.2 1004.0 0.0
18/12:30pm N 10 13 - - - - - - - 15.1 1005.3 0.0
18/12:29pm N 10 13 - - - - - - - 14.8 1005.3 0.0
18/12:00pm NW 13 17 - - - - - - - 13.4 1007.3 0.0
18/11:30am N 13 15 - - - - - - - 14.1 1006.8 0.0
18/11:00am N 15 18 - - - - - - - 13.4 1007.8 0.0
18/10:30am NNW 16 18 - - - - - - - 13.4 1008.4 0.0
18/10:00am NNW 14 17 - - - - - - - 12.9 1008.9 0.0
18/09:30am N 10 13 - - - - - - - 12.4 1009.3 0.0
18/09:00am NNW 11 14 - - - - - - - 11.8 1009.8 2.2
18/08:30am N 11 14 - - - - - - - 12.0 1010.1 2.2
18/08:00am N 12 15 - - - - - - - 11.5 1010.4 2.2
18/07:30am NNW 8 11 - - - - - - - 11.4 1010.5 2.2
18/07:00am NNW 8 10 - - - - - - - 11.0 1010.7 2.2
18/06:30am NW 7 8 - - - - - - - 11.2 1010.9 2.2
18/06:00am NNW 13 16 - - - - - - - 11.7 1011.2 2.2
18/05:30am NNW 11 15 - - - - - - - 11.9 1011.4 2.2
18/05:00am N 9 13 - - - - - - - 12.0 1011.4 2.2
18/04:30am N 11 13 - - - - - - - 12.1 1011.7 2.2
18/04:00am N 13 15 - - - - - - - 12.2 1012.3 2.2
18/03:30am N 13 16 - - - - - - - 12.1 1012.8 2.2
18/03:00am N 15 17 - - - - - - - 12.2 1013.3 2.2
18/02:30am N 16 20 - - - - - - - 12.3 1013.9 2.2
18/02:00am NNE 17 21 - - - - - - - 12.2 1014.5 2.2
18/01:30am NNE 19 23 - - - - - - - 12.2 1015.0 1.8
18/01:00am NNE 14 17 - - - - - - - 12.0 1015.5 1.6
18/12:30am NNE 14 16 - - - - - - - 11.7 1015.9 1.4
18/12:00am NNE 20 24 - - - - - - Recent precip. 11.9 1016.5 1.2
 
Date/Time
EST
Wind Sea
Height
m
Swell Vis
km
Cloud Weather Temp
°C
Press
hPa
Rain since
9am
mm
Dir  Spd
kts
Gust
kts
Height
m
Period
s
Dir
17/11:30pm NNE 20 24 - - - - - - - 12.0 1016.9 1.2
17/11:00pm NNE 21 25 - - - - - - - 11.7 1017.1 1.0
17/10:54pm NNE 20 24 - - - - - - - 11.8 1017.2 1.0
17/10:30pm N 12 14 - - - - - - - 11.2 1017.6 1.0
17/10:00pm N 12 16 - - - - - - - 11.0 1018.4 1.0
17/09:30pm N 15 21 - - - - - - - 11.1 1018.6 0.6
17/09:00pm NNE 18 21 - - - - - - Rain 11.6 1018.8 0.2
17/08:30pm N 14 16 - - - - - - - 11.0 1019.5 0.0
17/08:00pm N 15 22 - - - - - - - 11.1 1019.8 0.0
17/07:38pm NNE 14 22 - - - - - - - 11.8 1019.7 0.0
17/07:30pm N 7 10 - - - - - - - 11.4 1019.7 0.0
17/07:00pm N 7 9 - - - - - - - 10.9 1019.8 0.0
17/06:30pm N 12 17 - - - - - - - 10.9 1019.8 0.0
17/06:20pm N 9 19 - - - - - - - 11.7 1019.8 0.0
17/06:00pm N 5 7 - - - - - - - 11.5 1019.6 0.0
17/05:30pm NNE 6 9 - - - - - - - 11.8 1019.7 0.0
17/05:00pm NNE 4 5 - - - - - - - 12.1 1019.7 0.0
17/04:30pm NE 4 6 - - - - - - - 12.2 1019.7 0.0
17/04:00pm ENE 4 5 - - - - - - - 13.0 1019.7 0.0
17/03:30pm ENE 6 7 - - - - - - - 12.7 1020.0 0.0
17/03:00pm ENE 5 6 - - - - - - - 13.5 1020.4 0.0
17/02:30pm E 4 5 - - - - - - - 13.8 1020.5 0.0
17/02:00pm ESE 5 6 - - - - - - - 13.9 1020.5 0.0
17/01:30pm ESE 5 6 - - - - - - - 13.4 1020.8 0.0
17/01:00pm SE 5 6 - - - - - - - 13.6 1020.9 0.0
17/12:30pm SE 5 6 - - - - - - - 13.3 1021.2 0.0
17/12:00pm SSE 4 6 - - - - - - - 13.0 1021.7 0.0
17/11:30am S 6 7 - - - - - - - 13.1 1021.9 0.0
17/11:00am SSE 5 6 - - - - - - - 13.2 1022.2 0.0
17/10:30am SSE 6 8 - - - - - - - 13.0 1022.0 0.0
17/10:00am SSW 8 9 - - - - - - - 13.5 1022.2 0.0
17/09:30am SSW 8 9 - - - - - - - 12.2 1022.0 0.0
17/09:00am SSW 9 10 - - - - - - - 11.3 1021.9 8.4
17/08:30am SW 10 12 - - - - - - - 9.8 1021.7 8.4
17/08:00am SSW 10 13 - - - - - - - 9.3 1021.5 8.4
17/07:30am SSW 11 13 - - - - - - - 8.6 1021.1 8.4
17/07:00am SW 9 11 - - - - - - - 8.4 1020.7 8.4
17/06:30am S 13 16 - - - - - - - 9.0 1020.2 8.4
17/06:00am SSW 11 13 - - - - - - Rain 8.6 1020.0 8.4
17/05:30am SSW 15 17 - - - - - - - 9.0 1019.6 8.2
17/05:00am S 15 17 - - - - - - - 8.9 1019.2 8.2
17/04:30am SSW 13 14 - - - - - - - 8.7 1019.0 8.2
17/04:00am SSW 16 18 - - - - - - - 9.1 1018.6 8.2
17/03:30am SSW 16 19 - - - - - - - 9.0 1018.3 8.2
17/03:00am S 17 21 - - - - - - - 9.1 1018.1 8.2
17/02:30am S 18 20 - - - - - - - 9.1 1018.0 8.2
17/02:00am S 19 21 - - - - - - - 9.1 1017.7 8.2
17/01:30am S 18 21 - - - - - - - 9.3 1017.5 8.2
17/01:00am S 19 23 - - - - - - - 9.5 1017.5 8.2
17/12:30am S 19 24 - - - - - - - 9.5 1017.1 8.2
17/12:00am SSW 19 23 - - - - - - - 9.4 1016.8 8.2
 
Date/Time
EST
Wind Sea
Height
m
Swell Vis
km
Cloud Weather Temp
°C
Press
hPa
Rain since
9am
mm
Dir  Spd
kts
Gust
kts
Height
m
Period
s
Dir
16/11:30pm S 19 22 - - - - - - - 9.3 1016.6 8.2
16/11:00pm S 21 25 - - - - - - - 9.6 1016.1 8.2
16/10:30pm S 25 30 - - - - - - - 9.7 1015.8 8.2
16/10:00pm S 22 26 - - - - - - - 9.8 1015.6 8.2
16/09:30pm S 20 25 - - - - - - - 10.0 1015.3 8.2
16/09:00pm S 22 25 - - - - - - Rain 10.3 1014.8 6.8
16/08:54pm S 21 25 - - - - - - - 10.4 1014.7 6.6
16/08:30pm SSE 19 23 - - - - - - - 10.3 1014.5 6.6
16/08:00pm SSE 20 24 - - - - - - - 10.6 1014.0 6.6
16/07:30pm SSE 23 26 - - - - - - - 10.7 1013.6 6.6
16/07:00pm SSE 24 28 - - - - - - - 10.4 1012.9 6.6
16/06:30pm SSE 22 26 - - - - - - - 10.5 1012.5 6.6
16/06:00pm SSE 23 28 - - - - - - - 10.0 1012.0 6.6
16/05:30pm SSE 23 27 - - - - - - - 10.2 1011.6 6.6
16/05:00pm SSE 23 29 - - - - - - - 10.1 1011.1 6.6
16/04:30pm SSE 21 25 - - - - - - - 10.0 1010.6 6.6
16/04:00pm SSE 22 25 - - - - - - - 9.9 1010.2 6.4
16/03:30pm SSE 21 25 - - - - - - - 10.1 1010.1 6.0
16/03:00pm S 21 25 - - - - - - Rain 10.5 1009.9 5.2
16/02:30pm S 21 24 - - - - - - - 10.4 1009.8 4.8
16/02:00pm S 21 25 - - - - - - - 10.3 1009.2 3.2
16/01:30pm SSE 15 19 - - - - - - - 11.1 1009.2 1.6
16/01:00pm W 5 7 - - - - - - - 12.5 1009.3 1.6
16/12:30pm NW 8 10 - - - - - - - 12.4 1009.6 1.4
16/12:00pm NW 7 8 - - - - - - - 12.7 1009.5 1.4
16/11:30am N 8 11 - - - - - - - 11.9 1009.8 1.4
16/11:00am WNW 8 12 - - - - - - - 12.3 1009.8 1.4
16/10:30am NW 10 15 - - - - - - - 11.5 1010.5 1.0
16/10:00am NNW 7 9 - - - - - - - 11.6 1010.2 0.4
16/09:30am NNE 8 9 - - - - - - - 11.5 1010.1 0.2
16/09:00am N 8 12 - - - - - - Recent precip. 11.5 1010.8 0.8
16/08:30am N 8 11 - - - - - - - 11.4 1011.2 0.6
16/08:00am NNW 8 11 - - - - - - - 11.2 1011.2 0.6
16/07:30am NNW 9 11 - - - - - - - 10.8 1011.3 0.6
16/07:00am NNW 6 9 - - - - - - - 10.4 1011.0 0.6
16/06:30am N 6 7 - - - - - - - 10.4 1010.7 0.6
16/06:00am N 5 6 - - - - - - - 10.5 1010.8 0.6
16/05:30am N 3 5 - - - - - - - 10.4 1010.6 0.6
16/05:00am NW 4 6 - - - - - - - 10.2 1010.8 0.6
16/04:30am WNW 6 11 - - - - - - - 10.3 1010.6 0.6
16/04:00am WNW 4 6 - - - - - - - 10.5 1010.8 0.6
16/03:30am W 7 10 - - - - - - - 10.9 1011.0 0.6
16/03:00am W 10 16 - - - - - - - 11.0 1011.1 0.6
16/02:30am WNW 12 18 - - - - - - - 11.2 1011.6 0.6
16/02:00am WNW 13 21 - - - - - - - 11.2 1011.5 0.6
16/01:30am WNW 13 19 - - - - - - - 11.1 1011.7 0.6
16/01:00am WNW 17 31 - - - - - - - 11.1 1012.0 0.6
16/12:55am WNW 17 31 - - - - - - - 11.2 1012.0 0.6
16/12:30am WNW 15 20 - - - - - - - 11.3 1012.4 0.4
16/12:00am WNW 16 23 - - - - - - - 11.5 1012.6 0.0
 
Date/Time
EST
Wind Sea
Height
m
Swell Vis
km
Cloud Weather Temp
°C
Press
hPa
Rain since
9am
mm
Dir  Spd
kts
Gust
kts
Height
m
Period
s
Dir
15/11:30pm WNW 17 26 - - - - - - - 11.5 1012.7 0.0
15/11:08pm WNW 17 27 - - - - - - - 11.4 1012.9 0.0
15/11:00pm WNW 19 27 - - - - - - - 11.5 1013.0 0.0
15/10:30pm WNW 17 28 - - - - - - - 12.0 1012.8 0.0
15/10:23pm WNW 18 28 - - - - - - - 12.1 1012.8 0.0
15/10:00pm WNW 19 27 - - - - - - - 12.1 1013.0 0.0
15/09:30pm WNW 18 28 - - - - - - - 12.0 1013.1 0.0
15/09:23pm WNW 16 28 - - - - - - - 12.1 1013.1 0.0
15/09:00pm NW 17 25 - - - - - - - 12.3 1013.1 0.0
15/08:57pm NW 15 23 - - - - - - - 12.3 1013.2 0.0
15/08:30pm NW 10 13 - - - - - - - 11.7 1013.3 0.0
15/08:00pm NW 12 18 - - - - - - - 11.3 1013.4 0.0
15/07:30pm WNW 13 20 - - - - - - - 10.8 1013.6 0.0
15/07:00pm WNW 19 29 - - - - - - - 10.6 1013.7 0.0
15/06:49pm NW 17 27 - - - - - - - 11.2 1014.0 0.0
15/06:30pm NW 14 21 - - - - - - - 11.1 1014.1 0.0
15/06:04pm WNW 15 25 - - - - - - - 11.7 1014.1 0.0
15/06:00pm WNW 15 24 - - - - - - - 11.7 1014.1 0.0
15/05:30pm NW 13 21 - - - - - - - 11.7 1013.9 0.0
15/05:03pm WNW 15 25 - - - - - - - 11.8 1013.4 0.0
15/05:00pm WNW 15 22 - - - - - - - 11.8 1013.3 0.0
15/04:30pm WNW 17 29 - - - - - - - 12.5 1013.2 0.0
15/04:10pm WNW 16 26 - - - - - - - 12.7 1013.4 0.0
15/04:00pm WNW 18 26 - - - - - - - 12.4 1013.4 0.0
15/03:49pm NW 15 26 - - - - - - - 12.9 1013.3 0.0
15/03:30pm WNW 15 23 - - - - - - - 13.5 1013.5 0.0
15/03:16pm WNW 17 29 - - - - - - - 13.5 1013.7 0.0
15/03:00pm WNW 19 27 - - - - - - - 14.0 1014.1 0.0

Other formats

Comma delimited format used in spreadsheet applications
http://www.bom.gov.au/fwo/IDT60701/IDT60701.94983.axf

JavaScript Object Notation format (JSON) in row-major order
http://www.bom.gov.au/fwo/IDT60701/IDT60701.94983.json

Data quality

Most of these data are generated automatically and are frequently updated. Quality checks on data are not normally performed. It is possible for incorrect values to appear. Refer to information at About Latest Weather Observations and please check the disclaimer before using these data.